18.01.2021

Aktuelles

Lesen Sie Reiseberichte unserer Mitglieder

Reiseberichte

Flugzeugwartung einmal anders – in Brasilien/Amazonas

Ungewöhnliche Einsichten aus Brasilien / Amazonas…

Liebe Fliegerfreunde,
eigentlich wollte uns unser Clubmitglied Manfred Kunz einen Bericht über einen Flug über die Amazonas-Wälder schicken. Leider hat der Flug in der Form, wie er sich das gewünscht hatte, gar nicht so stattgefunden. Das Wasserflugzeug war in der Werft! [Mehr …]

kalifornien4
Reiseberichte

Kalifornien von oben

Eine Woche Zwischenstop in Santa Barbara sollte von uns Sichtfliegern unbedingt zu einem Erkundungsflug dieses vielfältigen und abwechslungsreichen Landstriches genutzt werden. Der Airport von Santa Barbara, KSBA, liegt einige Meilen westlich der Stadt. [Mehr …]

Flugzeug-Reservierung

Flugplatz PPR – NOTAM C3187/20

Der Flugplatz ist IFR PPR an Wochenenden und Feiertagen:

bis voraussichtlich 30.06.2021

An diesen Tagen ist normaler Flugbetrieb möglich mit Ausnahme auch für VFR-Verkehr in der Mittagspause (von 12.45 – 13.30 Uhr Ortszeit)

Anmelden unter PPR-Tel: +49 9292-977261

METAR EDQM

EDQM 181950Z 23012KT 3300 -SN BR BKN007 BKN011 OVC016 M00/M01 Q1019